sensor_id;sensor_type;location;lat;lon;timestamp;temperature;humidity
46490;DHT22;32204;49.160;8.580;2023-09-19T00:01:32;18.50;99.90
46490;DHT22;32204;49.160;8.580;2023-09-19T00:03:57;18.40;99.90
46490;DHT22;32204;49.160;8.580;2023-09-19T00:06:24;18.40;99.90
46490;DHT22;32204;49.160;8.580;2023-09-19T00:08:54;18.40;99.90
46490;DHT22;32204;49.160;8.580;2023-09-19T00:11:20;18.50;99.90
46490;DHT22;32204;49.160;8.580;2023-09-19T00:13:47;18.40;99.90
46490;DHT22;32204;49.160;8.580;2023-09-19T00:16:15;18.40;99.90
46490;DHT22;32204;49.160;8.580;2023-09-19T00:18:41;18.40;99.90
46490;DHT22;32204;49.160;8.580;2023-09-19T00:21:07;18.40;99.90
46490;DHT22;32204;49.160;8.580;2023-09-19T00:23:33;18.30;99.90
46490;DHT22;32204;49.160;8.580;2023-09-19T00:25:59;18.30;99.90
46490;DHT22;32204;49.160;8.580;2023-09-19T00:28:26;18.30;99.90
46490;DHT22;32204;49.160;8.580;2023-09-19T00:30:52;18.30;99.90
46490;DHT22;32204;49.160;8.580;2023-09-19T00:33:20;18.30;99.90
46490;DHT22;32204;49.160;8.580;2023-09-19T00:38:14;18.30;99.90
46490;DHT22;32204;49.160;8.580;2023-09-19T00:40:46;18.30;99.90
46490;DHT22;32204;49.160;8.580;2023-09-19T00:43:12;18.40;99.90
46490;DHT22;32204;49.160;8.580;2023-09-19T00:45:39;18.50;99.90
46490;DHT22;32204;49.160;8.580;2023-09-19T00:48:08;18.40;99.90
46490;DHT22;32204;49.160;8.580;2023-09-19T00:50:35;18.40;99.90
46490;DHT22;32204;49.160;8.580;2023-09-19T00:53:01;18.40;99.90
46490;DHT22;32204;49.160;8.580;2023-09-19T00:55:34;18.40;99.90
46490;DHT22;32204;49.160;8.580;2023-09-19T00:58:00;18.40;99.90
46490;DHT22;32204;49.160;8.580;2023-09-19T01:00:26;18.40;99.90
46490;DHT22;32204;49.160;8.580;2023-09-19T01:02:52;18.30;99.90
46490;DHT22;32204;49.160;8.580;2023-09-19T01:05:19;18.30;99.90
46490;DHT22;32204;49.160;8.580;2023-09-19T01:07:45;18.30;90.50
46490;DHT22;32204;49.160;8.580;2023-09-19T01:10:12;18.30;97.10
46490;DHT22;32204;49.160;8.580;2023-09-19T01:13:03;18.40;66.30
46490;DHT22;32204;49.160;8.580;2023-09-19T01:18:16;18.30;17.30
46490;DHT22;32204;49.160;8.580;2023-09-19T01:21:15;18.30;1.00
46490;DHT22;32204;49.160;8.580;2023-09-19T01:31:59;18.30;1.00
46490;DHT22;32204;49.160;8.580;2023-09-19T01:34:27;18.30;1.00
46490;DHT22;32204;49.160;8.580;2023-09-19T01:36:52;18.30;1.00
46490;DHT22;32204;49.160;8.580;2023-09-19T01:39:19;18.30;1.00
46490;DHT22;32204;49.160;8.580;2023-09-19T01:47:37;18.30;99.90
46490;DHT22;32204;49.160;8.580;2023-09-19T01:52:42;18.30;99.90
46490;DHT22;32204;49.160;8.580;2023-09-19T01:55:12;18.20;1.00
46490;DHT22;32204;49.160;8.580;2023-09-19T01:57:53;18.20;1.00
46490;DHT22;32204;49.160;8.580;2023-09-19T02:00:21;18.20;1.00
46490;DHT22;32204;49.160;8.580;2023-09-19T02:02:49;18.20;1.00
46490;DHT22;32204;49.160;8.580;2023-09-19T02:05:22;18.20;1.00
46490;DHT22;32204;49.160;8.580;2023-09-19T02:07:49;18.20;1.00
46490;DHT22;32204;49.160;8.580;2023-09-19T02:10:15;18.30;1.00
46490;DHT22;32204;49.160;8.580;2023-09-19T02:12:43;18.20;1.00
46490;DHT22;32204;49.160;8.580;2023-09-19T02:15:08;18.20;1.00
46490;DHT22;32204;49.160;8.580;2023-09-19T02:17:34;18.20;1.00
46490;DHT22;32204;49.160;8.580;2023-09-19T02:20:00;18.20;1.00
46490;DHT22;32204;49.160;8.580;2023-09-19T02:22:26;18.20;8.40
46490;DHT22;32204;49.160;8.580;2023-09-19T02:24:52;18.30;1.00
46490;DHT22;32204;49.160;8.580;2023-09-19T02:27:19;18.30;1.00
46490;DHT22;32204;49.160;8.580;2023-09-19T02:29:45;18.30;1.00
46490;DHT22;32204;49.160;8.580;2023-09-19T02:32:10;18.40;1.00
46490;DHT22;32204;49.160;8.580;2023-09-19T02:34:36;18.40;1.00
46490;DHT22;32204;49.160;8.580;2023-09-19T02:37:03;18.40;1.00
46490;DHT22;32204;49.160;8.580;2023-09-19T02:39:31;18.30;1.00
46490;DHT22;32204;49.160;8.580;2023-09-19T02:41:56;18.40;1.00
46490;DHT22;32204;49.160;8.580;2023-09-19T02:44:22;18.40;1.00
46490;DHT22;32204;49.160;8.580;2023-09-19T02:46:49;18.40;1.00
46490;DHT22;32204;49.160;8.580;2023-09-19T02:49:15;18.50;1.00
46490;DHT22;32204;49.160;8.580;2023-09-19T02:51:41;18.60;1.00
46490;DHT22;32204;49.160;8.580;2023-09-19T02:54:07;18.50;99.90
46490;DHT22;32204;49.160;8.580;2023-09-19T02:56:33;18.50;99.90
46490;DHT22;32204;49.160;8.580;2023-09-19T02:58:59;18.50;1.00
46490;DHT22;32204;49.160;8.580;2023-09-19T03:01:26;18.50;1.00
46490;DHT22;32204;49.160;8.580;2023-09-19T03:03:52;18.40;1.00
46490;DHT22;32204;49.160;8.580;2023-09-19T03:06:19;18.50;1.00
46490;DHT22;32204;49.160;8.580;2023-09-19T03:08:46;18.50;1.00
46490;DHT22;32204;49.160;8.580;2023-09-19T03:11:12;18.50;1.00
46490;DHT22;32204;49.160;8.580;2023-09-19T03:13:40;18.50;1.00
46490;DHT22;32204;49.160;8.580;2023-09-19T03:16:07;18.40;1.00
46490;DHT22;32204;49.160;8.580;2023-09-19T03:18:36;18.30;99.70
46490;DHT22;32204;49.160;8.580;2023-09-19T03:21:02;18.30;99.90
46490;DHT22;32204;49.160;8.580;2023-09-19T03:23:28;18.20;99.90
46490;DHT22;32204;49.160;8.580;2023-09-19T03:25:55;18.20;99.90
46490;DHT22;32204;49.160;8.580;2023-09-19T03:28:22;18.10;99.90
46490;DHT22;32204;49.160;8.580;2023-09-19T03:30:58;18.10;99.90
46490;DHT22;32204;49.160;8.580;2023-09-19T03:33:25;18.10;99.90
46490;DHT22;32204;49.160;8.580;2023-09-19T03:35:54;18.10;99.90
46490;DHT22;32204;49.160;8.580;2023-09-19T03:38:20;18.20;99.90
46490;DHT22;32204;49.160;8.580;2023-09-19T03:40:47;18.10;99.90
46490;DHT22;32204;49.160;8.580;2023-09-19T03:43:13;18.20;99.90
46490;DHT22;32204;49.160;8.580;2023-09-19T03:45:38;18.20;99.90
46490;DHT22;32204;49.160;8.580;2023-09-19T03:48:11;18.30;99.90
46490;DHT22;32204;49.160;8.580;2023-09-19T03:50:37;18.30;99.90
46490;DHT22;32204;49.160;8.580;2023-09-19T03:53:03;18.30;99.90
46490;DHT22;32204;49.160;8.580;2023-09-19T03:55:29;18.40;99.90
46490;DHT22;32204;49.160;8.580;2023-09-19T03:57:57;18.50;99.90
46490;DHT22;32204;49.160;8.580;2023-09-19T04:00:23;18.60;26.10
46490;DHT22;32204;49.160;8.580;2023-09-19T04:02:51;18.70;1.00
46490;DHT22;32204;49.160;8.580;2023-09-19T04:05:17;18.60;1.00
46490;DHT22;32204;49.160;8.580;2023-09-19T04:07:43;18.50;1.00
46490;DHT22;32204;49.160;8.580;2023-09-19T04:10:09;18.50;1.00
46490;DHT22;32204;49.160;8.580;2023-09-19T04:12:37;18.40;6.70
46490;DHT22;32204;49.160;8.580;2023-09-19T04:15:07;18.30;92.50
46490;DHT22;32204;49.160;8.580;2023-09-19T04:17:33;18.30;96.40
46490;DHT22;32204;49.160;8.580;2023-09-19T04:19:59;18.30;99.90
46490;DHT22;32204;49.160;8.580;2023-09-19T04:22:24;18.30;99.90
46490;DHT22;32204;49.160;8.580;2023-09-19T04:24:50;18.30;99.90
46490;DHT22;32204;49.160;8.580;2023-09-19T04:27:16;18.20;99.90
46490;DHT22;32204;49.160;8.580;2023-09-19T04:29:42;18.10;99.90
46490;DHT22;32204;49.160;8.580;2023-09-19T04:32:08;18.20;99.90
46490;DHT22;32204;49.160;8.580;2023-09-19T04:34:35;18.10;99.90
46490;DHT22;32204;49.160;8.580;2023-09-19T04:37:01;18.10;99.90
46490;DHT22;32204;49.160;8.580;2023-09-19T04:39:27;18.10;99.90
46490;DHT22;32204;49.160;8.580;2023-09-19T04:41:53;18.10;99.90
46490;DHT22;32204;49.160;8.580;2023-09-19T04:44:20;18.20;99.90
46490;DHT22;32204;49.160;8.580;2023-09-19T04:46:46;18.20;99.90
46490;DHT22;32204;49.160;8.580;2023-09-19T04:49:12;18.30;99.90
46490;DHT22;32204;49.160;8.580;2023-09-19T04:51:38;18.30;99.90
46490;DHT22;32204;49.160;8.580;2023-09-19T04:54:04;18.40;99.90
46490;DHT22;32204;49.160;8.580;2023-09-19T04:56:29;18.40;99.90
46490;DHT22;32204;49.160;8.580;2023-09-19T04:58:55;18.40;99.90
46490;DHT22;32204;49.160;8.580;2023-09-19T05:01:22;18.40;37.20
46490;DHT22;32204;49.160;8.580;2023-09-19T05:03:48;18.40;37.80
46490;DHT22;32204;49.160;8.580;2023-09-19T05:06:20;18.30;99.90
46490;DHT22;32204;49.160;8.580;2023-09-19T05:08:49;18.30;99.90
46490;DHT22;32204;49.160;8.580;2023-09-19T05:11:20;18.30;99.90
46490;DHT22;32204;49.160;8.580;2023-09-19T05:13:47;18.30;87.20
46490;DHT22;32204;49.160;8.580;2023-09-19T05:16:13;18.30;14.70
46490;DHT22;32204;49.160;8.580;2023-09-19T05:18:39;18.30;99.90
46490;DHT22;32204;49.160;8.580;2023-09-19T05:21:05;18.40;26.00
46490;DHT22;32204;49.160;8.580;2023-09-19T05:23:30;18.30;99.90
46490;DHT22;32204;49.160;8.580;2023-09-19T05:25:57;18.20;99.90
46490;DHT22;32204;49.160;8.580;2023-09-19T05:28:25;18.30;99.90
46490;DHT22;32204;49.160;8.580;2023-09-19T05:30:52;18.20;99.90
46490;DHT22;32204;49.160;8.580;2023-09-19T05:33:18;18.10;99.90
46490;DHT22;32204;49.160;8.580;2023-09-19T05:35:45;18.10;99.90
46490;DHT22;32204;49.160;8.580;2023-09-19T05:38:12;18.10;99.90
46490;DHT22;32204;49.160;8.580;2023-09-19T05:40:39;18.00;91.70
46490;DHT22;32204;49.160;8.580;2023-09-19T05:43:08;18.10;5.60
46490;DHT22;32204;49.160;8.580;2023-09-19T05:45:34;18.10;36.90
46490;DHT22;32204;49.160;8.580;2023-09-19T05:48:20;18.20;99.90
46490;DHT22;32204;49.160;8.580;2023-09-19T05:50:46;18.30;99.90
46490;DHT22;32204;49.160;8.580;2023-09-19T05:53:14;18.30;99.90
46490;DHT22;32204;49.160;8.580;2023-09-19T05:55:40;18.50;22.40
46490;DHT22;32204;49.160;8.580;2023-09-19T05:58:06;18.90;53.20
46490;DHT22;32204;49.160;8.580;2023-09-19T06:00:32;19.10;99.90
46490;DHT22;32204;49.160;8.580;2023-09-19T06:02:59;19.20;99.90
46490;DHT22;32204;49.160;8.580;2023-09-19T06:05:26;19.30;99.90
46490;DHT22;32204;49.160;8.580;2023-09-19T06:07:52;19.30;1.00
46490;DHT22;32204;49.160;8.580;2023-09-19T06:10:18;19.20;99.90
46490;DHT22;32204;49.160;8.580;2023-09-19T06:12:46;19.30;99.90
46490;DHT22;32204;49.160;8.580;2023-09-19T06:15:14;19.30;99.90
46490;DHT22;32204;49.160;8.580;2023-09-19T06:17:52;19.50;99.90
46490;DHT22;32204;49.160;8.580;2023-09-19T06:20:21;19.70;1.00
46490;DHT22;32204;49.160;8.580;2023-09-19T06:22:48;19.70;99.90
46490;DHT22;32204;49.160;8.580;2023-09-19T06:25:15;19.60;99.90
46490;DHT22;32204;49.160;8.580;2023-09-19T06:27:47;19.60;99.90
46490;DHT22;32204;49.160;8.580;2023-09-19T06:30:14;19.60;99.90
46490;DHT22;32204;49.160;8.580;2023-09-19T06:32:40;19.60;99.90
46490;DHT22;32204;49.160;8.580;2023-09-19T06:35:13;19.60;1.00
46490;DHT22;32204;49.160;8.580;2023-09-19T06:37:39;19.50;1.00
46490;DHT22;32204;49.160;8.580;2023-09-19T06:40:08;19.50;61.10
46490;DHT22;32204;49.160;8.580;2023-09-19T06:42:39;19.40;1.00
46490;DHT22;32204;49.160;8.580;2023-09-19T06:45:06;19.30;1.00
46490;DHT22;32204;49.160;8.580;2023-09-19T06:47:32;19.10;91.10
46490;DHT22;32204;49.160;8.580;2023-09-19T06:49:57;19.10;99.90
46490;DHT22;32204;49.160;8.580;2023-09-19T06:52:23;19.00;99.90
46490;DHT22;32204;49.160;8.580;2023-09-19T06:54:49;18.90;99.90
46490;DHT22;32204;49.160;8.580;2023-09-19T06:57:16;18.90;99.90
46490;DHT22;32204;49.160;8.580;2023-09-19T06:59:42;18.80;99.90
46490;DHT22;32204;49.160;8.580;2023-09-19T07:02:07;18.90;99.90
46490;DHT22;32204;49.160;8.580;2023-09-19T07:04:33;18.80;16.50
46490;DHT22;32204;49.160;8.580;2023-09-19T07:07:00;18.70;1.00
46490;DHT22;32204;49.160;8.580;2023-09-19T07:09:26;18.70;1.00
46490;DHT22;32204;49.160;8.580;2023-09-19T07:11:54;18.70;99.90
46490;DHT22;32204;49.160;8.580;2023-09-19T07:14:19;18.70;99.90
46490;DHT22;32204;49.160;8.580;2023-09-19T07:16:45;18.70;99.90
46490;DHT22;32204;49.160;8.580;2023-09-19T07:19:14;18.60;99.90
46490;DHT22;32204;49.160;8.580;2023-09-19T07:21:43;18.80;99.90
46490;DHT22;32204;49.160;8.580;2023-09-19T07:24:09;18.90;1.00
46490;DHT22;32204;49.160;8.580;2023-09-19T07:26:34;19.00;99.90
46490;DHT22;32204;49.160;8.580;2023-09-19T07:29:00;18.90;1.00
46490;DHT22;32204;49.160;8.580;2023-09-19T07:31:29;18.70;1.00
46490;DHT22;32204;49.160;8.580;2023-09-19T07:33:55;18.80;1.00
46490;DHT22;32204;49.160;8.580;2023-09-19T07:36:20;18.90;48.40
46490;DHT22;32204;49.160;8.580;2023-09-19T07:38:46;18.90;99.90
46490;DHT22;32204;49.160;8.580;2023-09-19T07:41:13;18.80;99.90
46490;DHT22;32204;49.160;8.580;2023-09-19T07:43:39;18.80;99.90
46490;DHT22;32204;49.160;8.580;2023-09-19T07:46:08;18.80;99.90
46490;DHT22;32204;49.160;8.580;2023-09-19T07:48:37;18.70;99.90
46490;DHT22;32204;49.160;8.580;2023-09-19T07:51:07;18.90;99.90
46490;DHT22;32204;49.160;8.580;2023-09-19T07:53:34;18.90;20.60
46490;DHT22;32204;49.160;8.580;2023-09-19T07:56:04;19.00;63.30
46490;DHT22;32204;49.160;8.580;2023-09-19T07:58:30;19.10;1.00
46490;DHT22;32204;49.160;8.580;2023-09-19T08:01:11;19.10;99.90
46490;DHT22;32204;49.160;8.580;2023-09-19T08:03:38;19.10;99.90
46490;DHT22;32204;49.160;8.580;2023-09-19T08:06:06;19.10;99.90
46490;DHT22;32204;49.160;8.580;2023-09-19T08:08:33;19.20;81.90
46490;DHT22;32204;49.160;8.580;2023-09-19T08:11:03;19.20;99.90
46490;DHT22;32204;49.160;8.580;2023-09-19T08:13:41;19.20;99.90
46490;DHT22;32204;49.160;8.580;2023-09-19T08:16:12;19.20;23.20
46490;DHT22;32204;49.160;8.580;2023-09-19T08:18:40;19.30;1.00
46490;DHT22;32204;49.160;8.580;2023-09-19T08:21:07;19.30;1.00
46490;DHT22;32204;49.160;8.580;2023-09-19T08:23:40;19.40;1.00
46490;DHT22;32204;49.160;8.580;2023-09-19T08:26:06;19.70;1.00
46490;DHT22;32204;49.160;8.580;2023-09-19T08:28:33;19.80;99.90
46490;DHT22;32204;49.160;8.580;2023-09-19T08:31:06;19.70;99.90
46490;DHT22;32204;49.160;8.580;2023-09-19T08:33:33;19.70;99.90
46490;DHT22;32204;49.160;8.580;2023-09-19T08:35:59;19.70;99.90
46490;DHT22;32204;49.160;8.580;2023-09-19T08:38:25;19.70;99.90
46490;DHT22;32204;49.160;8.580;2023-09-19T08:40:57;19.70;99.90
46490;DHT22;32204;49.160;8.580;2023-09-19T08:43:25;19.80;99.90
46490;DHT22;32204;49.160;8.580;2023-09-19T08:48:31;19.90;30.60
46490;DHT22;32204;49.160;8.580;2023-09-19T08:51:07;19.90;34.10
46490;DHT22;32204;49.160;8.580;2023-09-19T08:56:14;19.70;1.00
46490;DHT22;32204;49.160;8.580;2023-09-19T08:58:55;19.80;1.00
46490;DHT22;32204;49.160;8.580;2023-09-19T09:01:22;19.80;1.00
46490;DHT22;32204;49.160;8.580;2023-09-19T09:03:51;19.80;1.00
46490;DHT22;32204;49.160;8.580;2023-09-19T09:06:22;19.90;1.00
46490;DHT22;32204;49.160;8.580;2023-09-19T09:08:49;20.00;1.00
46490;DHT22;32204;49.160;8.580;2023-09-19T09:11:16;19.90;1.00
46490;DHT22;32204;49.160;8.580;2023-09-19T09:13:44;20.00;1.00
46490;DHT22;32204;49.160;8.580;2023-09-19T09:16:10;20.30;1.00
46490;DHT22;32204;49.160;8.580;2023-09-19T09:18:36;20.40;1.00
46490;DHT22;32204;49.160;8.580;2023-09-19T09:21:02;20.40;99.90
46490;DHT22;32204;49.160;8.580;2023-09-19T09:23:29;20.20;99.90
46490;DHT22;32204;49.160;8.580;2023-09-19T09:25:56;20.20;99.90
46490;DHT22;32204;49.160;8.580;2023-09-19T09:28:24;20.20;99.90
46490;DHT22;32204;49.160;8.580;2023-09-19T09:30:50;20.20;99.90
46490;DHT22;32204;49.160;8.580;2023-09-19T09:33:17;20.30;99.90
46490;DHT22;32204;49.160;8.580;2023-09-19T09:35:53;20.50;99.90
46490;DHT22;32204;49.160;8.580;2023-09-19T09:38:23;20.80;99.90
46490;DHT22;32204;49.160;8.580;2023-09-19T09:40:59;20.90;99.90
46490;DHT22;32204;49.160;8.580;2023-09-19T09:43:37;20.90;99.90
46490;DHT22;32204;49.160;8.580;2023-09-19T09:46:11;21.00;99.90
46490;DHT22;32204;49.160;8.580;2023-09-19T09:48:46;21.00;99.90
46490;DHT22;32204;49.160;8.580;2023-09-19T09:51:32;21.00;99.90
46490;DHT22;32204;49.160;8.580;2023-09-19T09:54:12;21.20;99.90
46490;DHT22;32204;49.160;8.580;2023-09-19T09:59:21;21.10;99.90
46490;DHT22;32204;49.160;8.580;2023-09-19T10:01:49;21.30;99.90
46490;DHT22;32204;49.160;8.580;2023-09-19T10:04:28;21.40;99.90
46490;DHT22;32204;49.160;8.580;2023-09-19T10:07:01;21.40;99.90
46490;DHT22;32204;49.160;8.580;2023-09-19T10:09:44;21.30;99.90
46490;DHT22;32204;49.160;8.580;2023-09-19T10:12:11;21.40;99.90
46490;DHT22;32204;49.160;8.580;2023-09-19T10:14:38;21.40;99.90
46490;DHT22;32204;49.160;8.580;2023-09-19T10:17:09;21.60;99.90
46490;DHT22;32204;49.160;8.580;2023-09-19T10:19:42;21.60;99.90
46490;DHT22;32204;49.160;8.580;2023-09-19T10:22:13;21.60;99.90
46490;DHT22;32204;49.160;8.580;2023-09-19T10:24:47;21.60;99.90
46490;DHT22;32204;49.160;8.580;2023-09-19T10:27:12;21.50;99.90
46490;DHT22;32204;49.160;8.580;2023-09-19T10:29:44;21.40;99.90
46490;DHT22;32204;49.160;8.580;2023-09-19T10:32:14;21.50;99.90
46490;DHT22;32204;49.160;8.580;2023-09-19T10:34:46;21.60;99.90
46490;DHT22;32204;49.160;8.580;2023-09-19T10:37:13;21.70;99.90
46490;DHT22;32204;49.160;8.580;2023-09-19T10:39:46;21.80;99.90
46490;DHT22;32204;49.160;8.580;2023-09-19T10:42:19;21.90;99.90
46490;DHT22;32204;49.160;8.580;2023-09-19T10:44:47;21.80;99.90
46490;DHT22;32204;49.160;8.580;2023-09-19T10:47:19;21.90;99.90
46490;DHT22;32204;49.160;8.580;2023-09-19T10:49:46;22.10;99.90
46490;DHT22;32204;49.160;8.580;2023-09-19T10:52:14;22.20;99.90
46490;DHT22;32204;49.160;8.580;2023-09-19T10:54:47;22.30;99.90
46490;DHT22;32204;49.160;8.580;2023-09-19T10:57:25;22.20;99.90
46490;DHT22;32204;49.160;8.580;2023-09-19T11:00:06;22.00;99.90
46490;DHT22;32204;49.160;8.580;2023-09-19T11:05:37;21.70;99.90
46490;DHT22;32204;49.160;8.580;2023-09-19T11:08:07;21.70;99.90
46490;DHT22;32204;49.160;8.580;2023-09-19T11:10:49;21.70;99.90
46490;DHT22;32204;49.160;8.580;2023-09-19T11:13:26;21.70;99.90
46490;DHT22;32204;49.160;8.580;2023-09-19T11:18:53;21.70;99.90
46490;DHT22;32204;49.160;8.580;2023-09-19T11:27:11;22.10;99.90
46490;DHT22;32204;49.160;8.580;2023-09-19T11:29:40;22.10;99.90
46490;DHT22;32204;49.160;8.580;2023-09-19T11:32:06;22.10;99.90
46490;DHT22;32204;49.160;8.580;2023-09-19T11:39:37;21.50;99.90
46490;DHT22;32204;49.160;8.580;2023-09-19T11:42:42;21.60;99.90
46490;DHT22;32204;49.160;8.580;2023-09-19T11:48:16;21.80;99.90
46490;DHT22;32204;49.160;8.580;2023-09-19T11:50:46;21.90;99.90
46490;DHT22;32204;49.160;8.580;2023-09-19T11:53:13;22.00;99.90
46490;DHT22;32204;49.160;8.580;2023-09-19T11:55:42;22.00;99.90
46490;DHT22;32204;49.160;8.580;2023-09-19T11:58:12;22.00;99.90
46490;DHT22;32204;49.160;8.580;2023-09-19T12:00:40;22.20;99.90
46490;DHT22;32204;49.160;8.580;2023-09-19T12:03:10;22.10;99.90
46490;DHT22;32204;49.160;8.580;2023-09-19T12:05:36;22.00;99.90
46490;DHT22;32204;49.160;8.580;2023-09-19T12:08:04;22.10;99.90
46490;DHT22;32204;49.160;8.580;2023-09-19T12:10:32;22.10;99.90
46490;DHT22;32204;49.160;8.580;2023-09-19T12:12:58;22.30;99.90
46490;DHT22;32204;49.160;8.580;2023-09-19T12:15:25;22.50;99.90
46490;DHT22;32204;49.160;8.580;2023-09-19T12:18:00;22.60;99.90
46490;DHT22;32204;49.160;8.580;2023-09-19T12:20:44;22.60;99.90
46490;DHT22;32204;49.160;8.580;2023-09-19T12:23:15;22.50;99.90
46490;DHT22;32204;49.160;8.580;2023-09-19T12:25:44;22.40;99.90
46490;DHT22;32204;49.160;8.580;2023-09-19T12:28:17;22.50;99.90
46490;DHT22;32204;49.160;8.580;2023-09-19T12:30:42;22.60;99.90
46490;DHT22;32204;49.160;8.580;2023-09-19T12:33:19;22.80;99.90
46490;DHT22;32204;49.160;8.580;2023-09-19T12:35:46;22.70;99.90
46490;DHT22;32204;49.160;8.580;2023-09-19T12:38:26;22.60;99.90
46490;DHT22;32204;49.160;8.580;2023-09-19T12:40:56;22.50;99.90
46490;DHT22;32204;49.160;8.580;2023-09-19T12:43:24;22.60;99.90
46490;DHT22;32204;49.160;8.580;2023-09-19T12:45:50;22.50;99.90
46490;DHT22;32204;49.160;8.580;2023-09-19T12:53:34;22.90;99.90
46490;DHT22;32204;49.160;8.580;2023-09-19T12:56:03;22.90;99.90
46490;DHT22;32204;49.160;8.580;2023-09-19T12:58:34;23.00;99.90
46490;DHT22;32204;49.160;8.580;2023-09-19T13:01:00;23.00;99.70
46490;DHT22;32204;49.160;8.580;2023-09-19T13:03:27;23.00;98.90
46490;DHT22;32204;49.160;8.580;2023-09-19T13:06:02;22.70;97.00
46490;DHT22;32204;49.160;8.580;2023-09-19T13:08:34;22.70;97.50
46490;DHT22;32204;49.160;8.580;2023-09-19T13:11:11;22.60;96.40
46490;DHT22;32204;49.160;8.580;2023-09-19T13:13:43;22.50;99.90
46490;DHT22;32204;49.160;8.580;2023-09-19T13:16:10;22.70;98.40
46490;DHT22;32204;49.160;8.580;2023-09-19T13:18:43;23.00;99.30
46490;DHT22;32204;49.160;8.580;2023-09-19T13:21:14;23.20;95.80
46490;DHT22;32204;49.160;8.580;2023-09-19T13:23:53;23.40;97.10
46490;DHT22;32204;49.160;8.580;2023-09-19T13:26:25;23.60;93.80
46490;DHT22;32204;49.160;8.580;2023-09-19T13:28:50;23.70;99.50
46490;DHT22;32204;49.160;8.580;2023-09-19T13:31:16;23.80;90.10
46490;DHT22;32204;49.160;8.580;2023-09-19T13:33:47;23.80;83.60
46490;DHT22;32204;49.160;8.580;2023-09-19T13:36:13;23.80;77.20
46490;DHT22;32204;49.160;8.580;2023-09-19T13:38:42;23.80;76.40
46490;DHT22;32204;49.160;8.580;2023-09-19T13:41:14;23.70;73.70
46490;DHT22;32204;49.160;8.580;2023-09-19T13:43:40;23.70;70.90
46490;DHT22;32204;49.160;8.580;2023-09-19T13:46:05;23.90;72.70
46490;DHT22;32204;49.160;8.580;2023-09-19T13:48:33;24.10;72.20
46490;DHT22;32204;49.160;8.580;2023-09-19T13:51:01;24.10;70.50
46490;DHT22;32204;49.160;8.580;2023-09-19T13:53:27;24.20;71.50
46490;DHT22;32204;49.160;8.580;2023-09-19T13:55:53;24.20;69.40
46490;DHT22;32204;49.160;8.580;2023-09-19T13:58:18;23.90;66.00
46490;DHT22;32204;49.160;8.580;2023-09-19T14:00:44;23.80;68.50
46490;DHT22;32204;49.160;8.580;2023-09-19T14:03:10;23.60;67.20
46490;DHT22;32204;49.160;8.580;2023-09-19T14:05:36;23.40;66.70
46490;DHT22;32204;49.160;8.580;2023-09-19T14:08:03;23.40;69.80
46490;DHT22;32204;49.160;8.580;2023-09-19T14:10:29;23.40;73.00
46490;DHT22;32204;49.160;8.580;2023-09-19T14:12:57;23.50;76.20
46490;DHT22;32204;49.160;8.580;2023-09-19T14:15:26;23.60;75.40
46490;DHT22;32204;49.160;8.580;2023-09-19T14:17:58;23.70;77.20
46490;DHT22;32204;49.160;8.580;2023-09-19T14:20:24;23.70;76.70
46490;DHT22;32204;49.160;8.580;2023-09-19T14:22:52;23.90;79.00
46490;DHT22;32204;49.160;8.580;2023-09-19T14:25:18;24.00;76.10
46490;DHT22;32204;49.160;8.580;2023-09-19T14:27:44;24.10;76.00
46490;DHT22;32204;49.160;8.580;2023-09-19T14:30:10;23.90;66.90
46490;DHT22;32204;49.160;8.580;2023-09-19T14:32:36;23.80;64.70
46490;DHT22;32204;49.160;8.580;2023-09-19T14:35:02;23.80;66.70
46490;DHT22;32204;49.160;8.580;2023-09-19T14:37:28;23.80;69.30
46490;DHT22;32204;49.160;8.580;2023-09-19T14:39:54;23.80;64.80
46490;DHT22;32204;49.160;8.580;2023-09-19T14:42:20;23.70;65.20
46490;DHT22;32204;49.160;8.580;2023-09-19T14:44:46;23.80;64.10
46490;DHT22;32204;49.160;8.580;2023-09-19T14:47:13;23.60;61.50
46490;DHT22;32204;49.160;8.580;2023-09-19T14:49:39;23.60;63.10
46490;DHT22;32204;49.160;8.580;2023-09-19T14:52:09;23.60;66.60
46490;DHT22;32204;49.160;8.580;2023-09-19T14:54:36;23.60;65.00
46490;DHT22;32204;49.160;8.580;2023-09-19T14:57:03;23.70;64.00
46490;DHT22;32204;49.160;8.580;2023-09-19T14:59:33;23.90;64.30
46490;DHT22;32204;49.160;8.580;2023-09-19T15:02:05;24.00;61.60
46490;DHT22;32204;49.160;8.580;2023-09-19T15:04:30;23.80;62.60
46490;DHT22;32204;49.160;8.580;2023-09-19T15:06:56;23.70;63.60
46490;DHT22;32204;49.160;8.580;2023-09-19T15:09:25;23.60;62.90
46490;DHT22;32204;49.160;8.580;2023-09-19T15:11:55;23.70;64.20
46490;DHT22;32204;49.160;8.580;2023-09-19T15:14:21;23.80;85.40
46490;DHT22;32204;49.160;8.580;2023-09-19T15:16:47;24.00;68.50
46490;DHT22;32204;49.160;8.580;2023-09-19T15:19:14;24.10;64.60
46490;DHT22;32204;49.160;8.580;2023-09-19T15:21:40;24.20;63.00
46490;DHT22;32204;49.160;8.580;2023-09-19T15:24:06;24.40;59.40
46490;DHT22;32204;49.160;8.580;2023-09-19T15:26:35;24.50;58.00
46490;DHT22;32204;49.160;8.580;2023-09-19T15:29:07;24.50;57.40
46490;DHT22;32204;49.160;8.580;2023-09-19T15:31:35;24.50;56.30
46490;DHT22;32204;49.160;8.580;2023-09-19T15:34:04;24.40;56.90
46490;DHT22;32204;49.160;8.580;2023-09-19T15:36:32;24.20;56.60
46490;DHT22;32204;49.160;8.580;2023-09-19T15:39:06;24.10;58.70
46490;DHT22;32204;49.160;8.580;2023-09-19T15:41:34;24.00;59.90
46490;DHT22;32204;49.160;8.580;2023-09-19T15:44:02;24.00;59.60
46490;DHT22;32204;49.160;8.580;2023-09-19T15:46:32;24.00;59.20
46490;DHT22;32204;49.160;8.580;2023-09-19T15:49:01;24.00;59.00
46490;DHT22;32204;49.160;8.580;2023-09-19T15:51:27;24.10;58.70
46490;DHT22;32204;49.160;8.580;2023-09-19T15:53:54;24.20;60.10
46490;DHT22;32204;49.160;8.580;2023-09-19T15:56:22;24.20;58.30
46490;DHT22;32204;49.160;8.580;2023-09-19T15:58:52;24.20;55.50
46490;DHT22;32204;49.160;8.580;2023-09-19T16:01:19;23.90;54.70
46490;DHT22;32204;49.160;8.580;2023-09-19T16:03:49;23.80;56.30
46490;DHT22;32204;49.160;8.580;2023-09-19T16:06:17;23.70;60.00
46490;DHT22;32204;49.160;8.580;2023-09-19T16:08:45;23.70;60.40
46490;DHT22;32204;49.160;8.580;2023-09-19T16:11:12;23.70;60.50
46490;DHT22;32204;49.160;8.580;2023-09-19T16:13:40;23.70;63.90
46490;DHT22;32204;49.160;8.580;2023-09-19T16:16:09;23.80;64.60
46490;DHT22;32204;49.160;8.580;2023-09-19T16:19:00;23.80;64.80
46490;DHT22;32204;49.160;8.580;2023-09-19T16:21:31;23.90;82.30
46490;DHT22;32204;49.160;8.580;2023-09-19T16:23:59;24.00;66.70
46490;DHT22;32204;49.160;8.580;2023-09-19T16:26:26;24.00;64.50
46490;DHT22;32204;49.160;8.580;2023-09-19T16:28:53;24.00;65.80
46490;DHT22;32204;49.160;8.580;2023-09-19T16:31:20;23.90;64.50
46490;DHT22;32204;49.160;8.580;2023-09-19T16:33:47;24.00;66.10
46490;DHT22;32204;49.160;8.580;2023-09-19T16:36:14;23.90;68.60